Time;durP1;ratioP1;P1;durP2;ratioP2;P2;SDS_P1;SDS_P2;PMS_P1;PMS_P2;Temp;Humidity;BMP_temperature;BMP_pressure;BME280_temperature;BME280_humidity;BME280_pressure;Samples;Min_cycle;Max_cycle;Signal;HPM_P1;HPM_P2
2022/07/03 00:01:41;;;;;;;1.90;0.80;;;;;;;19.02;65.70;101475.25;5064333;28;20025;-76
2022/07/03 00:04:07;;;;;;;3.67;0.90;;;;;;;18.96;66.41;101469.97;5079967;28;20063;-76
2022/07/03 00:06:33;;;;;;;2.38;0.88;;;;;;;18.95;66.31;101476.22;5047727;28;20040;-76
2022/07/03 00:09:00;;;;;;;2.53;0.90;;;;;;;18.94;66.04;101479.84;5048446;28;20044;-76
2022/07/03 00:11:26;;;;;;;3.58;1.10;;;;;;;18.94;65.38;101471.97;5084985;28;20111;-76
2022/07/03 00:13:52;;;;;;;2.05;0.77;;;;;;;18.94;65.26;101477.22;5050429;28;20918;-76
2022/07/03 00:16:17;;;;;;;2.55;0.80;;;;;;;18.93;65.43;101480.84;5088798;28;20073;-76
2022/07/03 00:18:43;;;;;;;3.13;1.05;;;;;;;18.91;64.88;101485.50;5052157;28;20476;-76
2022/07/03 00:21:11;;;;;;;2.25;0.82;;;;;;;18.89;65.10;101475.16;5083255;28;20515;-76
2022/07/03 00:23:50;;;;;;;1.45;0.93;;;;;;;18.90;65.12;101473.38;5065736;28;20111;-76
2022/07/03 00:26:19;;;;;;;3.15;1.17;;;;;;;18.84;65.42;101469.72;5058888;28;20071;-76
2022/07/03 00:28:45;;;;;;;2.58;0.77;;;;;;;18.78;66.56;101470.44;5062324;28;20028;-77
2022/07/03 00:31:12;;;;;;;2.00;0.60;;;;;;;18.71;67.52;101470.41;5066055;28;20052;-76
2022/07/03 00:33:37;;;;;;;1.38;1.10;;;;;;;18.68;68.01;101465.53;5062358;28;20071;-76
2022/07/03 00:36:04;;;;;;;1.92;0.90;;;;;;;18.68;67.72;101468.16;5060240;28;20468;-76
2022/07/03 00:38:30;;;;;;;1.48;0.60;;;;;;;18.66;67.52;101460.47;5083134;28;21961;-76
2022/07/03 00:40:56;;;;;;;2.15;0.90;;;;;;;18.65;67.51;101458.88;5085235;28;20031;-76
2022/07/03 00:43:21;;;;;;;3.72;1.30;;;;;;;18.62;67.18;101450.56;5069000;28;20039;-76
2022/07/03 00:45:49;;;;;;;2.47;1.10;;;;;;;18.58;67.12;101452.75;5061370;28;20048;-77
2022/07/03 00:48:16;;;;;;;1.92;1.00;;;;;;;18.50;67.10;101437.16;5043774;28;20046;-76
2022/07/03 00:50:51;;;;;;;3.03;0.90;;;;;;;18.42;67.67;101445.19;5058653;28;20492;-76
2022/07/03 00:53:28;;;;;;;2.00;1.10;;;;;;;18.39;68.10;101435.06;5079885;28;20032;-76
2022/07/03 00:55:55;;;;;;;1.70;1.13;;;;;;;18.39;68.26;101427.22;5084941;28;20031;-76
2022/07/03 00:58:21;;;;;;;2.03;0.80;;;;;;;18.36;68.59;101431.00;5077203;28;20028;-76
2022/07/03 01:00:50;;;;;;;2.15;0.90;;;;;;;18.33;69.11;101428.78;5067206;28;20056;-76
2022/07/03 01:03:17;;;;;;;1.73;0.98;;;;;;;18.27;69.62;101435.59;5084191;28;20509;-76
2022/07/03 01:05:45;;;;;;;1.65;0.80;;;;;;;18.23;69.64;101437.00;5057368;28;20047;-76
2022/07/03 01:08:20;;;;;;;3.33;0.82;;;;;;;18.22;69.29;101434.56;5079292;28;20443;-76
2022/07/03 01:11:04;;;;;;;4.25;0.77;;;;;;;18.19;68.91;101435.72;5068113;28;20050;-76
2022/07/03 01:13:46;;;;;;;2.25;0.88;;;;;;;18.18;68.77;101441.19;5083975;28;20089;-76
2022/07/03 01:16:33;;;;;;;3.28;1.60;;;;;;;18.14;68.17;101438.16;5063833;28;20036;-76
2022/07/03 01:19:22;;;;;;;2.45;1.08;;;;;;;18.11;67.88;101435.88;5061834;28;20801;-76
2022/07/03 01:22:14;;;;;;;3.75;1.00;;;;;;;18.08;68.00;101429.22;5066040;28;20140;-76
2022/07/03 01:25:02;;;;;;;2.47;1.17;;;;;;;18.04;68.01;101432.41;5066144;28;20072;-76
2022/07/03 01:27:34;;;;;;;3.60;0.90;;;;;;;17.99;67.83;101432.97;5084849;28;20481;-76
2022/07/03 01:30:10;;;;;;;1.20;0.88;;;;;;;17.97;67.71;101436.78;5091697;28;20959;-76
2022/07/03 01:32:45;;;;;;;3.10;1.10;;;;;;;17.93;67.83;101433.72;5080061;28;20056;-76
2022/07/03 01:35:13;;;;;;;1.45;0.90;;;;;;;17.89;67.86;101433.31;5076794;28;20043;-76
2022/07/03 01:37:40;;;;;;;2.63;1.00;;;;;;;17.84;68.12;101430.44;5059605;28;20539;-76
2022/07/03 01:40:07;;;;;;;2.60;1.40;;;;;;;17.82;68.19;101434.19;5047641;28;20035;-76
2022/07/03 01:42:33;;;;;;;1.80;1.10;;;;;;;17.78;68.62;101439.03;5059781;28;20096;-76
2022/07/03 01:45:00;;;;;;;2.28;1.20;;;;;;;17.68;69.55;101431.44;5062139;28;20089;-76
2022/07/03 01:47:26;;;;;;;5.15;1.15;;;;;;;17.63;70.05;101438.25;5046088;28;20495;-76
2022/07/03 01:49:54;;;;;;;1.83;1.00;;;;;;;17.59;70.26;101431.78;5060469;28;20579;-76
2022/07/03 01:52:21;;;;;;;2.58;1.00;;;;;;;17.57;70.11;101425.91;5080893;28;20028;-76
2022/07/03 01:54:49;;;;;;;2.05;0.98;;;;;;;17.56;70.40;101427.72;5082586;28;20036;-76
2022/07/03 01:57:15;;;;;;;1.77;1.10;;;;;;;17.56;70.46;101419.84;5061191;28;20123;-76
2022/07/03 01:59:40;;;;;;;4.65;1.30;;;;;;;17.54;70.45;101421.03;5065427;28;20117;-76
2022/07/03 02:02:32;;;;;;;4.05;1.63;;;;;;;17.51;70.55;101425.63;5076380;28;20028;-76
2022/07/03 02:05:09;;;;;;;2.60;1.10;;;;;;;17.50;70.46;101424.03;5055691;28;20034;-76
2022/07/03 02:07:54;;;;;;;3.60;1.38;;;;;;;17.48;70.36;101417.38;5078759;28;20024;-76
2022/07/03 02:10:28;;;;;;;5.90;1.20;;;;;;;17.45;70.82;101423.78;5064714;28;20390;-76
2022/07/03 02:13:02;;;;;;;3.15;1.33;;;;;;;17.41;71.06;101419.91;5080663;28;20480;-76
2022/07/03 02:15:35;;;;;;;4.28;1.50;;;;;;;17.38;71.52;101417.66;5064583;28;20036;-76
2022/07/03 02:18:32;;;;;;;2.22;1.15;;;;;;;17.35;71.79;101417.19;5064728;28;20392;-76
2022/07/03 02:21:12;;;;;;;2.22;1.42;;;;;;;17.31;71.83;101419.41;5044916;28;20063;-76
2022/07/03 02:24:07;;;;;;;5.07;1.40;;;;;;;17.28;71.52;101417.16;5083365;28;20036;-76
2022/07/03 02:26:37;;;;;;;1.65;1.40;;;;;;;17.27;71.66;101410.28;5075523;28;20032;-76
2022/07/03 02:29:05;;;;;;;2.83;1.13;;;;;;;17.23;71.92;101411.63;5061116;28;20403;-76
2022/07/03 02:31:40;;;;;;;3.53;1.30;;;;;;;17.19;72.29;101408.56;5052004;28;20029;-76
2022/07/03 02:34:07;;;;;;;3.30;1.17;;;;;;;17.16;72.13;101414.19;5067830;28;20044;-75
2022/07/03 02:36:35;;;;;;;1.98;1.35;;;;;;;17.13;72.46;101412.75;5065049;28;20094;-75
2022/07/03 02:39:01;;;;;;;2.92;1.40;;;;;;;17.10;72.43;101418.38;5068825;28;20036;-76
2022/07/03 02:41:57;;;;;;;4.20;1.15;;;;;;;17.07;72.50;101413.50;5088798;28;20033;-76
2022/07/03 02:44:45;;;;;;;3.03;1.17;;;;;;;17.06;72.72;101418.91;5032915;28;20055;-76
2022/07/03 02:47:27;;;;;;;4.38;0.93;;;;;;;17.03;72.65;101417.47;5078897;28;20045;-76
2022/07/03 02:50:00;;;;;;;2.88;1.27;;;;;;;17.00;72.89;101414.41;5089355;28;20031;-76
2022/07/03 02:52:34;;;;;;;3.47;1.27;;;;;;;16.94;73.40;101418.56;5072800;28;20028;-76
2022/07/03 02:55:07;;;;;;;2.28;1.10;;;;;;;16.91;73.12;101416.31;5091262;28;20092;-76
2022/07/03 02:57:39;;;;;;;3.22;1.55;;;;;;;16.90;72.94;101419.94;5073005;28;20112;-76
2022/07/03 03:00:08;;;;;;;7.55;1.20;;;;;;;16.85;73.36;101423.09;5074518;28;20040;-76
2022/07/03 03:02:51;;;;;;;6.22;1.70;;;;;;;16.83;73.47;101425.09;5082997;28;20052;-76
2022/07/03 03:05:22;;;;;;;1.98;1.05;;;;;;;16.79;73.49;101420.38;5065550;28;20039;-76
2022/07/03 03:08:03;;;;;;;2.83;1.10;;;;;;;16.76;73.48;101421.53;5056632;28;20448;-76
2022/07/03 03:10:29;;;;;;;4.22;1.60;;;;;;;16.72;73.71;101412.41;5068840;28;20024;-76
2022/07/03 03:13:04;;;;;;;5.95;1.10;;;;;;;16.64;74.49;101415.13;5071000;28;20074;-76
2022/07/03 03:15:31;;;;;;;8.75;1.17;;;;;;;16.57;74.92;101424.69;5066275;28;20039;-76
2022/07/03 03:18:07;;;;;;;3.80;1.35;;;;;;;16.53;74.86;101425.03;5058384;28;20032;-76
2022/07/03 03:20:35;;;;;;;5.57;1.20;;;;;;;16.51;74.64;101429.66;5087780;28;20108;-77
2022/07/03 03:23:16;;;;;;;5.03;1.38;;;;;;;16.50;74.82;101422.81;5089138;28;20119;-76
2022/07/03 03:25:41;;;;;;;2.00;0.90;;;;;;;16.48;75.08;101426.59;5089097;28;20032;-76
2022/07/03 03:28:07;;;;;;;2.92;0.90;;;;;;;16.46;75.13;101428.56;5049570;28;20020;-76
2022/07/03 03:30:35;;;;;;;3.50;1.70;;;;;;;16.41;75.45;101431.75;5070510;28;20042;-76
2022/07/03 03:33:01;;;;;;;3.30;1.13;;;;;;;16.36;75.81;101434.06;5066089;28;20537;-76
2022/07/03 03:35:26;;;;;;;1.77;1.20;;;;;;;16.34;75.79;101431.63;5066513;28;20028;-76
2022/07/03 03:37:52;;;;;;;9.63;1.15;;;;;;;16.26;76.10;101436.94;5055633;28;20060;-76
2022/07/03 03:40:17;;;;;;;7.53;1.20;;;;;;;16.20;76.65;101453.38;5072527;28;20028;-76
2022/07/03 03:42:43;;;;;;;5.65;1.42;;;;;;;16.08;78.08;101454.75;5065040;28;20073;-76
2022/07/03 03:45:09;;;;;;;2.97;1.90;;;;;;;15.89;78.45;101456.06;5066210;28;20815;-77
2022/07/03 03:47:35;;;;;;;1.92;1.25;;;;;;;15.89;77.31;101462.09;5088474;28;20518;-76
2022/07/03 03:50:01;;;;;;;4.05;1.40;;;;;;;15.95;75.76;101471.88;5081051;28;20112;-76
2022/07/03 03:52:28;;;;;;;6.30;1.63;;;;;;;16.05;74.78;101469.00;5060534;28;20592;-76
2022/07/03 03:54:54;;;;;;;7.57;1.95;;;;;;;16.04;74.38;101471.81;5082583;28;20574;-76
2022/07/03 03:57:22;;;;;;;4.30;1.60;;;;;;;16.02;74.73;101471.97;5065598;28;20024;-75
2022/07/03 03:59:47;;;;;;;4.10;1.40;;;;;;;16.00;75.23;101471.34;5072538;28;20111;-76
2022/07/03 04:02:13;;;;;;;3.85;1.88;;;;;;;16.00;75.38;101462.69;5067975;28;20119;-75
2022/07/03 04:04:38;;;;;;;6.15;1.70;;;;;;;16.08;75.03;101470.47;5088203;28;20177;-76
2022/07/03 04:07:04;;;;;;;5.32;1.70;;;;;;;16.05;75.53;101469.00;5090236;28;20047;-77
2022/07/03 04:09:30;;;;;;;3.13;1.92;;;;;;;16.00;75.65;101471.34;5067140;28;20036;-77
2022/07/03 04:11:56;;;;;;;3.65;1.75;;;;;;;15.99;75.82;101471.50;5061584;28;20204;-76
2022/07/03 04:14:21;;;;;;;4.22;2.08;;;;;;;16.05;75.76;101470.78;5048657;28;20031;-76
2022/07/03 04:16:47;;;;;;;3.60;1.67;;;;;;;16.04;75.96;101471.81;5058516;28;20715;-77
2022/07/03 04:19:12;;;;;;;8.13;3.00;;;;;;;16.04;76.13;101469.19;5078388;28;20035;-76
2022/07/03 04:21:38;;;;;;;3.20;1.83;;;;;;;16.04;76.13;101470.00;5062319;28;20481;-76
2022/07/03 04:24:04;;;;;;;8.05;2.25;;;;;;;16.04;76.34;101474.41;5076354;28;20028;-76
2022/07/03 04:26:29;;;;;;;2.97;1.70;;;;;;;16.05;76.38;101466.41;5065188;28;20572;-76
2022/07/03 04:28:55;;;;;;;3.90;2.08;;;;;;;16.08;76.33;101473.88;5057718;28;20047;-76
2022/07/03 04:31:20;;;;;;;4.07;1.55;;;;;;;16.09;76.29;101475.53;5065077;28;20059;-77
2022/07/03 04:33:46;;;;;;;2.88;1.42;;;;;;;16.12;76.33;101474.34;5061790;28;20039;-76
2022/07/03 04:36:11;;;;;;;3.92;1.75;;;;;;;16.13;76.12;101466.31;5079293;28;20024;-77
2022/07/03 04:38:36;;;;;;;5.88;2.30;;;;;;;16.14;76.32;101470.59;5054018;28;20048;-76
2022/07/03 04:41:02;;;;;;;4.05;2.08;;;;;;;16.18;76.26;101473.66;5079475;28;20038;-76
2022/07/03 04:43:27;;;;;;;2.78;1.83;;;;;;;16.23;76.15;101471.31;5049793;28;20035;-76
2022/07/03 04:45:53;;;;;;;3.25;1.70;;;;;;;16.31;75.98;101475.66;5075476;28;20040;-76
2022/07/03 04:48:18;;;;;;;3.88;1.95;;;;;;;16.35;75.99;101471.72;5066817;28;20508;-76
2022/07/03 04:50:44;;;;;;;4.35;2.60;;;;;;;16.39;76.17;101478.22;5069341;28;20063;-76
2022/07/03 04:53:10;;;;;;;8.40;2.88;;;;;;;16.47;76.38;101477.31;5043814;28;20120;-76
2022/07/03 04:55:35;;;;;;;7.45;3.08;;;;;;;16.46;76.60;101483.53;5060005;28;20052;-76
2022/07/03 04:58:01;;;;;;;9.32;3.08;;;;;;;16.55;76.85;101472.00;5088112;28;20037;-77
2022/07/03 05:00:26;;;;;;;4.07;2.45;;;;;;;16.54;76.73;101483.47;5064438;28;20043;-77
2022/07/03 05:02:52;;;;;;;3.90;2.72;;;;;;;16.65;76.72;101487.44;5059886;28;20040;-77
2022/07/03 05:05:17;;;;;;;5.40;3.10;;;;;;;16.73;76.47;101492.59;5081638;28;20043;-76
2022/07/03 05:07:44;;;;;;;7.68;3.08;;;;;;;16.71;76.28;101494.59;5067284;28;20032;-76
2022/07/03 05:10:09;;;;;;;5.80;3.00;;;;;;;16.72;75.96;101497.00;5065473;28;20055;-76
2022/07/03 05:12:35;;;;;;;5.40;3.25;;;;;;;16.73;76.27;101492.59;5057974;28;20551;-77
2022/07/03 05:15:01;;;;;;;7.13;3.65;;;;;;;16.89;75.61;101502.91;5058589;28;20044;-77
2022/07/03 05:17:26;;;;;;;8.68;3.15;;;;;;;16.96;75.94;101503.03;5080819;28;20035;-77
2022/07/03 05:22:36;;;;;;;7.70;4.30;;;;;;;17.24;76.03;101503.19;5076042;28;20548;-77
2022/07/03 05:25:01;;;;;;;6.07;4.35;;;;;;;17.38;75.67;101504.16;5058099;28;20036;-76
2022/07/03 05:27:26;;;;;;;5.93;3.40;;;;;;;17.44;75.40;101508.69;5058246;28;20039;-77
2022/07/03 05:29:52;;;;;;;8.38;3.47;;;;;;;17.55;74.58;101507.34;5049926;28;20034;-76
2022/07/03 05:32:17;;;;;;;6.43;4.10;;;;;;;17.80;73.56;101520.13;5081735;28;20396;-76
2022/07/03 05:34:43;;;;;;;9.02;4.18;;;;;;;17.97;72.64;101512.84;5049658;28;20101;-77
2022/07/03 05:37:08;;;;;;;5.20;3.85;;;;;;;18.15;71.63;101507.97;5061300;28;20032;-77
2022/07/03 05:39:34;;;;;;;7.68;3.90;;;;;;;18.31;69.94;101506.91;5076222;28;20047;-77
2022/07/03 05:42:00;;;;;;;6.40;3.72;;;;;;;18.44;69.51;101507.00;5065720;28;20031;-77
2022/07/03 05:44:26;;;;;;;4.70;3.80;;;;;;;18.72;68.91;101497.50;5063840;28;20074;-77
2022/07/03 05:46:51;;;;;;;5.93;3.60;;;;;;;18.94;68.41;101493.00;5047489;28;20043;-76
2022/07/03 05:49:17;;;;;;;10.98;3.45;;;;;;;19.18;66.97;101499.59;5080273;28;20104;-76
2022/07/03 05:51:42;;;;;;;7.63;3.95;;;;;;;19.40;65.70;101506.34;5058983;28;20032;-77
2022/07/03 05:54:08;;;;;;;6.00;3.85;;;;;;;19.61;65.46;101508.00;5066910;28;20066;-76
2022/07/03 05:56:33;;;;;;;5.95;3.08;;;;;;;19.78;63.79;101507.69;5081006;28;20044;-77
2022/07/03 05:58:59;;;;;;;3.53;2.80;;;;;;;20.00;62.55;101506.50;5083613;28;20035;-76
2022/07/03 06:01:24;;;;;;;6.80;3.03;;;;;;;20.21;61.99;101512.56;5070293;28;20032;-77
2022/07/03 06:03:50;;;;;;;7.22;3.45;;;;;;;20.49;61.51;101511.53;5051837;28;20016;-76
2022/07/03 06:06:15;;;;;;;4.72;3.40;;;;;;;20.65;61.04;101507.72;5057455;28;20436;-77
2022/07/03 06:08:41;;;;;;;9.45;2.92;;;;;;;20.73;59.95;101505.63;5045920;28;20043;-77
2022/07/03 06:11:06;;;;;;;6.32;3.00;;;;;;;20.99;59.20;101512.66;5046578;28;20039;-77
2022/07/03 06:13:32;;;;;;;8.05;3.25;;;;;;;21.16;59.03;101517.50;5050964;28;20048;-77
2022/07/03 06:15:57;;;;;;;6.28;3.33;;;;;;;21.39;59.00;101519.59;5079030;28;20028;-76
2022/07/03 06:18:23;;;;;;;17.73;8.63;;;;;;;21.55;57.62;101515.72;5079765;28;20039;-77
2022/07/03 06:20:48;;;;;;;7.50;3.63;;;;;;;21.85;56.56;101525.66;5060705;28;20036;-76
2022/07/03 06:23:14;;;;;;;6.53;3.63;;;;;;;22.05;54.91;101521.06;5080481;28;20040;-77
2022/07/03 06:25:40;;;;;;;6.10;3.83;;;;;;;22.16;55.11;101512.44;5049711;28;20098;-77
2022/07/03 06:28:05;;;;;;;8.55;3.08;;;;;;;22.47;54.57;101513.44;5059840;28;21153;-78
2022/07/03 06:30:30;;;;;;;4.38;2.58;;;;;;;22.84;54.12;101517.94;5059542;28;20079;-76
2022/07/03 06:32:56;;;;;;;4.63;3.13;;;;;;;23.16;53.06;101517.78;5059220;28;20036;-77
2022/07/03 06:35:21;;;;;;;8.05;2.80;;;;;;;23.27;53.63;101514.41;5078410;28;20040;-77
2022/07/03 06:37:47;;;;;;;4.60;2.30;;;;;;;23.59;52.45;101514.97;5062965;28;20073;-77
2022/07/03 06:40:12;;;;;;;4.13;2.28;;;;;;;23.63;50.33;101515.34;5061127;28;20369;-77
2022/07/03 06:42:38;;;;;;;4.93;2.83;;;;;;;23.74;49.90;101525.16;5055999;28;20455;-77
2022/07/03 06:45:04;;;;;;;6.25;2.35;;;;;;;23.35;50.76;101527.31;5058338;28;20021;-77
2022/07/03 06:47:29;;;;;;;2.58;1.80;;;;;;;23.58;51.06;101526.56;5056516;28;20267;-77
2022/07/03 06:49:54;;;;;;;3.58;2.10;;;;;;;23.84;50.48;101519.31;5073131;28;20032;-78
2022/07/03 06:52:20;;;;;;;2.08;1.20;;;;;;;24.34;49.27;101518.13;5054547;28;20032;-77
2022/07/03 06:54:45;;;;;;;3.17;1.48;;;;;;;24.48;48.69;101509.69;5053881;28;20035;-77
2022/07/03 06:57:11;;;;;;;4.07;1.60;;;;;;;24.09;49.28;101512.00;5051824;28;20040;-77
2022/07/03 06:59:37;;;;;;;4.88;1.40;;;;;;;23.69;50.90;101517.88;5074828;28;20564;-75
2022/07/03 07:02:03;;;;;;;5.43;1.27;;;;;;;23.20;51.80;101517.13;5075966;28;20024;-77
2022/07/03 07:04:28;;;;;;;8.25;3.03;;;;;;;23.73;50.80;101509.47;5041536;28;20028;-76
2022/07/03 07:06:54;;;;;;;3.75;1.70;;;;;;;24.13;49.42;101515.00;5057099;28;20039;-76
2022/07/03 07:09:19;;;;;;;3.10;1.65;;;;;;;24.78;47.76;101514.06;5059853;28;20020;-76
2022/07/03 07:11:45;;;;;;;4.22;1.73;;;;;;;24.87;47.77;101525.91;5044294;28;20024;-77
2022/07/03 07:14:10;;;;;;;3.90;1.40;;;;;;;25.56;45.29;101519.84;5057867;28;20102;-77
2022/07/03 07:16:36;;;;;;;5.93;1.98;;;;;;;25.91;45.29;101518.81;5059269;28;20040;-77
2022/07/03 07:19:01;;;;;;;2.83;1.38;;;;;;;26.05;44.23;101514.03;5058534;28;20132;-78
2022/07/03 07:21:27;;;;;;;3.03;1.60;;;;;;;26.14;43.77;101514.41;5060868;28;20045;-77
2022/07/03 07:23:52;;;;;;;3.75;1.30;;;;;;;26.29;44.01;101521.78;5066068;28;20476;-77
2022/07/03 07:26:19;;;;;;;2.28;1.10;;;;;;;26.27;42.77;101518.56;5066689;28;20043;-76
2022/07/03 07:28:46;;;;;;;4.65;1.63;;;;;;;26.58;42.47;101525.94;5054690;28;20163;-77
2022/07/03 07:31:11;;;;;;;6.32;1.40;;;;;;;26.53;42.70;101519.75;5075081;28;20122;-76
2022/07/03 07:33:37;;;;;;;3.00;1.25;;;;;;;26.97;41.65;101531.25;5049253;28;20615;-77
2022/07/03 07:36:03;;;;;;;4.35;1.00;;;;;;;27.25;40.74;101524.09;5078094;28;20134;-76
2022/07/03 07:38:28;;;;;;;2.55;1.08;;;;;;;27.40;39.91;101530.66;5061683;28;20113;-77
2022/07/03 07:40:53;;;;;;;1.75;0.93;;;;;;;27.47;39.42;101526.72;5088544;28;20502;-77
2022/07/03 07:43:19;;;;;;;3.53;1.42;;;;;;;27.39;38.87;101532.50;5082002;28;20028;-76
2022/07/03 07:45:44;;;;;;;3.63;1.52;;;;;;;27.14;39.61;101533.81;5067168;28;20085;-77
2022/07/03 07:48:10;;;;;;;3.63;1.33;;;;;;;27.03;39.78;101531.28;5067454;28;20039;-77
2022/07/03 07:50:35;;;;;;;4.35;1.00;;;;;;;27.41;40.68;101533.06;5047483;28;20442;-78
2022/07/03 07:53:02;;;;;;;3.00;1.08;;;;;;;27.47;39.40;101529.38;5069668;28;20342;-78
2022/07/03 07:55:27;;;;;;;3.28;1.40;;;;;;;27.72;38.92;101525.34;5063434;28;20023;-76
2022/07/03 07:57:52;;;;;;;5.82;1.30;;;;;;;27.85;38.60;101527.56;5069093;28;20040;-77
2022/07/03 08:00:19;;;;;;;3.97;1.50;;;;;;;28.08;38.21;101522.97;5082900;28;20028;-77
2022/07/03 08:05:36;;;;;;;3.70;1.42;;;;;;;28.26;38.29;101527.91;5071748;28;20028;-78
2022/07/03 08:08:10;;;;;;;1.17;1.00;;;;;;;28.22;38.39;101526.00;5067265;28;20033;-77
2022/07/03 08:10:38;;;;;;;3.25;1.50;;;;;;;28.44;38.11;101521.31;5079146;28;20050;-77
2022/07/03 08:13:04;;;;;;;6.07;1.35;;;;;;;28.40;39.32;101525.56;5085256;28;20451;-79
2022/07/03 08:15:30;;;;;;;4.95;1.40;;;;;;;28.66;38.64;101529.19;5072627;28;20036;-77
2022/07/03 08:17:56;;;;;;;6.13;1.67;;;;;;;28.77;38.22;101521.25;5067107;28;20526;-77
2022/07/03 08:20:21;;;;;;;4.40;1.27;;;;;;;29.05;37.86;101522.69;5083334;28;20035;-77
2022/07/03 08:22:47;;;;;;;3.72;1.52;;;;;;;28.71;39.24;101523.09;5064640;28;20040;-78
2022/07/03 08:25:12;;;;;;;2.15;1.20;;;;;;;28.82;38.22;101521.25;5073798;28;20028;-77
2022/07/03 08:27:37;;;;;;;4.40;1.52;;;;;;;28.89;37.69;101524.50;5078370;28;20043;-77
2022/07/03 08:30:04;;;;;;;5.13;1.80;;;;;;;28.95;38.48;101522.63;5090592;28;20035;-77
2022/07/03 08:32:29;;;;;;;5.55;1.90;;;;;;;28.63;38.34;101529.75;5064279;28;20052;-77
2022/07/03 08:34:55;;;;;;;5.25;1.80;;;;;;;28.43;37.53;101530.41;5071836;28;20032;-78
2022/07/03 08:37:20;;;;;;;3.63;1.63;;;;;;;28.69;37.30;101526.03;5064694;28;20036;-76
2022/07/03 08:39:45;;;;;;;7.53;1.88;;;;;;;28.98;37.18;101522.13;5065680;28;20143;-75
2022/07/03 08:42:12;;;;;;;3.72;1.90;;;;;;;28.96;38.88;101524.25;5070628;28;20399;-75
2022/07/03 08:44:39;;;;;;;6.65;2.20;;;;;;;29.20;37.14;101520.06;5080920;28;20039;-77
2022/07/03 08:47:08;;;;;;;6.97;1.80;;;;;;;29.32;37.49;101525.16;5069162;28;20111;-78
2022/07/03 08:49:34;;;;;;;6.72;2.10;;;;;;;29.33;36.32;101528.63;5052387;28;20040;-77
2022/07/03 08:52:00;;;;;;;9.88;1.80;;;;;;;29.43;36.42;101523.31;5084347;28;20088;-76
2022/07/03 08:54:26;;;;;;;3.78;1.65;;;;;;;29.42;36.76;101522.53;5067394;28;20038;-76
2022/07/03 08:56:52;;;;;;;4.90;2.28;;;;;;;29.42;36.94;101527.88;5046040;28;20033;-77
2022/07/03 08:59:19;;;;;;;3.00;1.58;;;;;;;29.42;36.68;101519.03;5052802;28;20465;-75
2022/07/03 09:01:46;;;;;;;5.10;1.75;;;;;;;29.53;37.62;101522.53;5048807;28;20061;-76
2022/07/03 09:04:15;;;;;;;3.78;1.60;;;;;;;29.46;37.74;101522.78;5055512;28;20039;-77
2022/07/03 09:06:42;;;;;;;5.65;1.50;;;;;;;29.43;37.07;101526.78;5041211;28;20115;-76
2022/07/03 09:09:08;;;;;;;3.92;2.13;;;;;;;29.45;36.94;101527.31;5089516;28;20032;-78
2022/07/03 09:11:36;;;;;;;2.25;1.30;;;;;;;29.83;36.91;101524.41;5070394;28;20502;-77
2022/07/03 09:14:06;;;;;;;2.00;1.08;;;;;;;30.00;36.25;101526.81;5080162;28;20039;-77
2022/07/03 09:16:35;;;;;;;3.53;1.67;;;;;;;29.18;35.49;101524.88;5052819;28;20599;-75
2022/07/03 09:19:02;;;;;;;3.88;1.48;;;;;;;29.41;35.60;101522.78;5081786;28;20041;-78
2022/07/03 09:21:36;;;;;;;4.13;1.23;;;;;;;29.84;35.27;101524.16;5085895;28;20051;-78
2022/07/03 09:24:05;;;;;;;2.67;0.95;;;;;;;29.69;35.33;101526.81;5068781;28;20035;-78
2022/07/03 09:26:31;;;;;;;2.58;1.05;;;;;;;30.13;35.89;101522.78;5048205;28;20393;-77
2022/07/03 09:28:56;;;;;;;4.97;1.25;;;;;;;29.75;35.66;101519.63;5063773;28;20040;-75
2022/07/03 09:31:24;;;;;;;3.90;1.00;;;;;;;29.56;35.42;101524.66;5043052;28;20102;-77
2022/07/03 09:34:00;;;;;;;3.20;1.20;;;;;;;29.61;35.51;101527.31;5053826;28;20036;-77
2022/07/03 09:36:43;;;;;;;2.90;1.30;;;;;;;29.70;35.90;101526.56;5063721;28;20044;-77
2022/07/03 09:39:36;;;;;;;5.32;1.90;;;;;;;29.57;34.76;101527.06;5082120;28;20063;-76
2022/07/03 09:42:09;;;;;;;4.82;1.10;;;;;;;29.81;36.55;101523.88;5063957;28;20040;-78
2022/07/03 09:44:36;;;;;;;4.22;1.10;;;;;;;29.86;36.31;101531.91;5065458;28;20028;-77
2022/07/03 09:47:20;;;;;;;5.75;1.33;;;;;;;29.70;35.12;101523.88;5060399;28;20385;-77
2022/07/03 09:50:00;;;;;;;4.03;1.48;;;;;;;29.92;35.16;101519.34;5081263;28;20401;-77
2022/07/03 09:52:32;;;;;;;2.80;1.55;;;;;;;29.82;36.10;101522.81;5065427;28;20029;-76
2022/07/03 09:55:09;;;;;;;4.43;1.40;;;;;;;29.88;35.91;101524.44;5052231;28;20481;-77
2022/07/03 09:58:02;;;;;;;8.13;1.40;;;;;;;29.67;34.16;101523.59;5088217;28;20428;-78
2022/07/03 10:00:33;;;;;;;4.10;1.23;;;;;;;29.56;35.50;101528.13;5072968;28;20165;-77
2022/07/03 10:03:00;;;;;;;6.13;1.77;;;;;;;29.66;36.43;101522.00;5067488;28;20028;-78
2022/07/03 10:05:33;;;;;;;5.38;2.03;;;;;;;29.78;35.29;101522.56;5084545;28;20032;-77
2022/07/03 10:08:06;;;;;;;;;;;;;;;30.01;34.43;101528.44;5067590;28;20038;-77
2022/07/03 10:10:33;;;;;;;5.50;1.08;;;;;;;29.63;35.86;101526.00;5049713;28;19916;-77
2022/07/03 10:12:59;;;;;;;3.03;1.30;;;;;;;29.96;35.52;101526.53;5088382;28;20748;-77
2022/07/03 10:15:26;;;;;;;1.92;1.02;;;;;;;29.63;34.92;101525.19;5078651;28;20082;-77
2022/07/03 10:17:56;;;;;;;2.60;1.20;;;;;;;29.76;35.87;101531.91;5068760;28;20488;-77
2022/07/03 10:20:40;;;;;;;2.25;1.13;;;;;;;29.77;36.02;101536.19;5080785;28;20047;-78
2022/07/03 10:23:06;;;;;;;4.85;1.27;;;;;;;29.82;35.48;101523.63;5061473;28;20038;-79
2022/07/03 10:25:32;;;;;;;4.22;1.05;;;;;;;29.67;35.77;101524.41;5084976;28;20752;-78
2022/07/03 10:27:58;;;;;;;4.13;1.00;;;;;;;29.64;35.17;101524.91;5071483;28;20028;-78
2022/07/03 10:30:24;;;;;;;2.22;1.10;;;;;;;29.74;35.23;101531.38;5050709;28;20028;-77
2022/07/03 10:32:55;;;;;;;4.68;1.40;;;;;;;29.59;35.17;101535.63;5084064;28;20032;-77
2022/07/03 10:35:42;;;;;;;1.73;1.08;;;;;;;29.62;35.27;101526.28;5068018;28;20749;-75
2022/07/03 10:38:33;;;;;;;2.38;1.10;;;;;;;29.59;36.35;101524.94;5068302;28;20493;-78
2022/07/03 10:46:59;;;;;;;5.93;1.00;;;;;;;29.80;35.25;101522.28;5087238;28;20377;-77
2022/07/03 10:49:25;;;;;;;4.18;1.13;;;;;;;29.86;34.88;101522.00;5059682;28;20020;-76
2022/07/03 10:51:55;;;;;;;3.15;0.90;;;;;;;29.76;34.76;101527.38;5053942;28;20566;-77
2022/07/03 10:54:28;;;;;;;2.92;1.10;;;;;;;29.35;35.20;101523.81;5084010;28;20115;-77
2022/07/03 10:57:02;;;;;;;;;;;;;;;29.18;36.49;101524.88;5067485;28;20090;-77
2022/07/03 10:59:45;;;;;;;2.22;0.80;;;;;;;29.29;35.52;101521.16;5048251;28;19912;-78
2022/07/03 11:02:43;;;;;;;1.83;0.77;;;;;;;29.16;36.13;101528.88;5071107;28;20039;-76
2022/07/03 11:05:13;;;;;;;7.85;1.23;;;;;;;29.20;34.86;101529.97;5080245;28;20641;-78
2022/07/03 11:08:02;;;;;;;2.00;0.95;;;;;;;29.02;36.35;101515.19;5063378;28;20047;-78
2022/07/03 11:10:28;;;;;;;2.40;0.65;;;;;;;29.40;35.54;101518.50;5083964;28;20036;-77
2022/07/03 11:13:00;;;;;;;2.70;1.10;;;;;;;29.21;36.76;101513.66;5082881;28;20048;-79
2022/07/03 11:15:28;;;;;;;1.30;0.90;;;;;;;29.46;36.00;101506.75;5066565;28;20040;-78
2022/07/03 11:20:42;;;;;;;1.67;0.80;;;;;;;29.31;36.06;101507.56;5086272;28;20403;-77
2022/07/03 11:23:13;;;;;;;3.03;0.90;;;;;;;29.14;35.05;101514.97;5068260;28;20157;-76
2022/07/03 11:25:50;;;;;;;5.22;1.20;;;;;;;29.51;35.46;101504.09;5071778;28;20067;-77
2022/07/03 11:28:49;;;;;;;2.45;0.98;;;;;;;29.12;34.60;101507.19;5080782;28;20036;-79
2022/07/03 11:31:18;;;;;;;1.65;0.88;;;;;;;29.46;34.97;101499.56;5008948;28;20142;-77
2022/07/03 11:33:48;;;;;;;2.20;1.00;;;;;;;29.22;35.63;101499.25;5063475;28;20124;-78
2022/07/03 11:36:16;;;;;;;2.88;0.90;;;;;;;29.29;35.38;101507.00;5085918;28;20042;-77
2022/07/03 11:38:48;;;;;;;1.00;0.85;;;;;;;29.47;35.86;101497.69;5081753;28;20472;-77
2022/07/03 11:41:16;;;;;;;3.47;0.60;;;;;;;29.53;37.16;101501.94;5068160;28;20101;-78
2022/07/03 11:43:49;;;;;;;1.25;0.50;;;;;;;29.83;35.07;101495.81;5079933;28;20076;-78
2022/07/03 11:46:21;;;;;;;1.77;0.70;;;;;;;29.67;34.17;101504.91;5068914;28;20040;-78
2022/07/03 11:48:47;;;;;;;2.25;0.75;;;;;;;29.43;34.94;101501.94;5064919;28;20055;-78
2022/07/03 11:51:14;;;;;;;1.90;0.80;;;;;;;29.36;35.04;101504.88;5072374;28;20028;-79